CheckWX is a tool to help pilots better visualize weather data.  It is not intended as a substitute for an official pre-flight weather briefing.

07:43:56 UTC

KPHF TAF
Newport News / Williamsburg International Airport
Newport News, Virginia, USA
KPHF 200546Z 2006/2106 21008KT P6SM SCT050 BKN200 FM201500 23011G18KT P6SM SCT200 FM202100 24012G19KT P6SM VCTS BKN060CB FM202300 25011G18KT 4SM SHRA BKN050 FM210200 25010KT P6SM SCT060 BKN150

Jun-20@
06:00 UTC

Jun-20 @ 06:00 UTC

Jun-20@
15:00 UTC

Jun-20 @ 15:00 UTC

KPHF 200546Z 2006/2106 21008KT P6SM SCT050 BKN200
Wind
  • 210° at 8 KTS
Cloud Levels
  • Scattered at 5,000' AGL
  • Broken at 20,000' AGL

Jun-20@
15:00 UTC

Jun-20 @ 15:00 UTC

Jun-20@
21:00 UTC

Jun-20 @ 21:00 UTC

FM201500 23011G18KT P6SM SCT200

From

From Standard forecast or significant change

Wind
  • 230° at 11 KTS
  • {Gusting to 18 KTS
Cloud Levels
  • Scattered at 20,000' AGL

Jun-20@
21:00 UTC

Jun-20 @ 21:00 UTC

Jun-20@
23:00 UTC

Jun-20 @ 23:00 UTC

FM202100 24012G19KT P6SM VCTS BKN060CB

From

From Standard forecast or significant change

Wind
  • 240° at 12 KTS
  • {Gusting to 19 KTS
Conditions
Area Thunderstorm
Cloud Levels
  • Broken at 6,000' AGL

Jun-20@
23:00 UTC

Jun-20 @ 23:00 UTC

Jun-21@
02:00 UTC

Jun-21 @ 02:00 UTC

FM202300 25011G18KT 4SM SHRA BKN050

From

From Standard forecast or significant change

Wind
  • 250° at 11 KTS
  • {Gusting to 18 KTS
Conditions
Rain
Cloud Levels
  • Broken at 5,000' AGL

Jun-21@
02:00 UTC

Jun-21 @ 02:00 UTC

Jun-21@
06:00 UTC

Jun-21 @ 06:00 UTC

FM210200 25010KT P6SM SCT060 BKN150

From

From Standard forecast or significant change

Wind
  • 250° at 10 KTS
Cloud Levels
  • Scattered at 6,000' AGL
  • Broken at 15,000' AGL